Beeler, Kansas
Current Conditions -  °F | °C
As of 9:54 AM on Friday 28 Nov 2014 (Local Time) from KGCK Reporting Station
Clear Clear  
Wind Chill: 42°   Ceiling: Unl
Heat Index: 46°   Visibility: 10mi
Dew Point: 27°   Wind: 8mph
Humidity: 47%   Direction: 270°W
Pressure: 29.94"   Gusts: NA
Location:  38.44°N, 100.2°W
Report Text: KGCK 281554Z 27007KT 10SM CLR 08/M03 A2994 RMK AO2 SLP141 T00781028
Loading
Personal Weather Stations






























Interactive Weather Map New forecast layout! Learn more

10-Day Weather Forecast

Advertisements
Track Severe Weather on mobile